sensor_id;sensor_type;location;lat;lon;timestamp;P1;durP1;ratioP1;P2;durP2;ratioP2
26946;SDS011;14501;52.282;10.560;2023-08-24T00:00:55;8.90;;;3.85;;
26946;SDS011;14501;52.282;10.560;2023-08-24T00:03:21;5.18;;;3.10;;
26946;SDS011;14501;52.282;10.560;2023-08-24T00:05:47;7.68;;;3.08;;
26946;SDS011;14501;52.282;10.560;2023-08-24T00:08:13;6.22;;;3.53;;
26946;SDS011;14501;52.282;10.560;2023-08-24T00:10:39;4.55;;;3.20;;
26946;SDS011;14501;52.282;10.560;2023-08-24T00:13:08;9.10;;;3.17;;
26946;SDS011;14501;52.282;10.560;2023-08-24T00:15:34;5.60;;;3.03;;
26946;SDS011;14501;52.282;10.560;2023-08-24T00:18:00;4.13;;;2.92;;
26946;SDS011;14501;52.282;10.560;2023-08-24T00:20:26;7.45;;;3.50;;
26946;SDS011;14501;52.282;10.560;2023-08-24T00:22:52;5.63;;;3.38;;
26946;SDS011;14501;52.282;10.560;2023-08-24T00:25:19;5.22;;;3.80;;
26946;SDS011;14501;52.282;10.560;2023-08-24T00:27:45;8.10;;;3.83;;
26946;SDS011;14501;52.282;10.560;2023-08-24T00:30:10;4.80;;;3.40;;
26946;SDS011;14501;52.282;10.560;2023-08-24T00:32:36;8.00;;;3.53;;
26946;SDS011;14501;52.282;10.560;2023-08-24T00:35:02;9.38;;;3.85;;
26946;SDS011;14501;52.282;10.560;2023-08-24T00:37:31;3.78;;;3.47;;
26946;SDS011;14501;52.282;10.560;2023-08-24T00:39:59;10.35;;;3.78;;
26946;SDS011;14501;52.282;10.560;2023-08-24T00:42:26;10.55;;;3.30;;
26946;SDS011;14501;52.282;10.560;2023-08-24T00:44:52;4.30;;;3.50;;
26946;SDS011;14501;52.282;10.560;2023-08-24T00:47:17;7.38;;;3.88;;
26946;SDS011;14501;52.282;10.560;2023-08-24T00:49:43;6.00;;;3.58;;
26946;SDS011;14501;52.282;10.560;2023-08-24T00:52:09;5.72;;;3.25;;
26946;SDS011;14501;52.282;10.560;2023-08-24T00:54:35;4.07;;;3.70;;
26946;SDS011;14501;52.282;10.560;2023-08-24T00:57:03;8.30;;;3.80;;
26946;SDS011;14501;52.282;10.560;2023-08-24T00:59:29;7.38;;;3.80;;
26946;SDS011;14501;52.282;10.560;2023-08-24T01:01:56;6.18;;;3.72;;
26946;SDS011;14501;52.282;10.560;2023-08-24T01:04:23;5.65;;;3.97;;
26946;SDS011;14501;52.282;10.560;2023-08-24T01:06:48;4.25;;;3.47;;
26946;SDS011;14501;52.282;10.560;2023-08-24T01:09:14;6.38;;;4.00;;
26946;SDS011;14501;52.282;10.560;2023-08-24T01:12:00;6.18;;;3.97;;
26946;SDS011;14501;52.282;10.560;2023-08-24T01:14:40;6.60;;;4.07;;
26946;SDS011;14501;52.282;10.560;2023-08-24T01:17:15;8.23;;;3.85;;
26946;SDS011;14501;52.282;10.560;2023-08-24T01:19:44;7.38;;;4.45;;
26946;SDS011;14501;52.282;10.560;2023-08-24T01:22:24;6.80;;;3.90;;
26946;SDS011;14501;52.282;10.560;2023-08-24T01:25:16;8.20;;;3.75;;
26946;SDS011;14501;52.282;10.560;2023-08-24T01:27:48;9.45;;;4.40;;
26946;SDS011;14501;52.282;10.560;2023-08-24T01:30:15;6.63;;;5.30;;
26946;SDS011;14501;52.282;10.560;2023-08-24T01:32:42;6.38;;;4.32;;
26946;SDS011;14501;52.282;10.560;2023-08-24T01:35:08;8.77;;;4.55;;
26946;SDS011;14501;52.282;10.560;2023-08-24T01:37:35;7.45;;;4.00;;
26946;SDS011;14501;52.282;10.560;2023-08-24T01:42:48;9.23;;;4.53;;
26946;SDS011;14501;52.282;10.560;2023-08-24T01:45:19;8.10;;;4.63;;
26946;SDS011;14501;52.282;10.560;2023-08-24T01:47:49;6.35;;;3.85;;
26946;SDS011;14501;52.282;10.560;2023-08-24T01:50:17;6.20;;;4.00;;
26946;SDS011;14501;52.282;10.560;2023-08-24T01:52:43;9.88;;;4.20;;
26946;SDS011;14501;52.282;10.560;2023-08-24T01:55:09;7.13;;;4.53;;
26946;SDS011;14501;52.282;10.560;2023-08-24T01:57:36;7.38;;;4.43;;
26946;SDS011;14501;52.282;10.560;2023-08-24T02:00:03;11.85;;;4.22;;
26946;SDS011;14501;52.282;10.560;2023-08-24T02:02:31;7.07;;;5.25;;
26946;SDS011;14501;52.282;10.560;2023-08-24T02:04:58;10.27;;;5.10;;
26946;SDS011;14501;52.282;10.560;2023-08-24T02:07:24;13.10;;;5.18;;
26946;SDS011;14501;52.282;10.560;2023-08-24T02:09:50;6.88;;;4.95;;
26946;SDS011;14501;52.282;10.560;2023-08-24T02:12:15;5.82;;;5.10;;
26946;SDS011;14501;52.282;10.560;2023-08-24T02:14:41;6.65;;;5.07;;
26946;SDS011;14501;52.282;10.560;2023-08-24T02:17:06;5.80;;;4.75;;
26946;SDS011;14501;52.282;10.560;2023-08-24T02:19:32;9.10;;;5.50;;
26946;SDS011;14501;52.282;10.560;2023-08-24T02:21:58;10.00;;;5.10;;
26946;SDS011;14501;52.282;10.560;2023-08-24T02:24:23;9.82;;;5.15;;
26946;SDS011;14501;52.282;10.560;2023-08-24T02:26:49;7.57;;;5.32;;
26946;SDS011;14501;52.282;10.560;2023-08-24T02:29:14;8.02;;;4.68;;
26946;SDS011;14501;52.282;10.560;2023-08-24T02:31:40;11.18;;;5.15;;
26946;SDS011;14501;52.282;10.560;2023-08-24T02:34:06;9.60;;;5.28;;
26946;SDS011;14501;52.282;10.560;2023-08-24T02:36:31;6.95;;;4.72;;
26946;SDS011;14501;52.282;10.560;2023-08-24T02:38:58;5.72;;;5.05;;
26946;SDS011;14501;52.282;10.560;2023-08-24T02:41:27;11.00;;;5.35;;
26946;SDS011;14501;52.282;10.560;2023-08-24T02:43:52;11.63;;;6.00;;
26946;SDS011;14501;52.282;10.560;2023-08-24T02:46:20;9.98;;;5.32;;
26946;SDS011;14501;52.282;10.560;2023-08-24T02:48:46;9.23;;;5.30;;
26946;SDS011;14501;52.282;10.560;2023-08-24T02:51:12;7.93;;;5.03;;
26946;SDS011;14501;52.282;10.560;2023-08-24T02:53:38;10.23;;;5.20;;
26946;SDS011;14501;52.282;10.560;2023-08-24T02:56:04;8.25;;;5.40;;
26946;SDS011;14501;52.282;10.560;2023-08-24T02:58:30;6.85;;;4.93;;
26946;SDS011;14501;52.282;10.560;2023-08-24T03:00:55;7.05;;;5.10;;
26946;SDS011;14501;52.282;10.560;2023-08-24T03:03:22;8.38;;;5.63;;
26946;SDS011;14501;52.282;10.560;2023-08-24T03:05:59;7.45;;;5.40;;
26946;SDS011;14501;52.282;10.560;2023-08-24T03:08:26;7.10;;;5.60;;
26946;SDS011;14501;52.282;10.560;2023-08-24T03:10:52;9.02;;;5.50;;
26946;SDS011;14501;52.282;10.560;2023-08-24T03:13:18;6.90;;;5.40;;
26946;SDS011;14501;52.282;10.560;2023-08-24T03:15:43;13.68;;;5.95;;
26946;SDS011;14501;52.282;10.560;2023-08-24T03:18:12;8.23;;;5.30;;
26946;SDS011;14501;52.282;10.560;2023-08-24T03:20:39;6.57;;;5.35;;
26946;SDS011;14501;52.282;10.560;2023-08-24T03:23:05;8.65;;;5.53;;
26946;SDS011;14501;52.282;10.560;2023-08-24T03:25:32;11.25;;;5.57;;
26946;SDS011;14501;52.282;10.560;2023-08-24T03:28:01;15.27;;;5.68;;
26946;SDS011;14501;52.282;10.560;2023-08-24T03:30:28;7.53;;;5.00;;
26946;SDS011;14501;52.282;10.560;2023-08-24T03:32:53;9.20;;;6.00;;
26946;SDS011;14501;52.282;10.560;2023-08-24T03:35:19;7.03;;;5.50;;
26946;SDS011;14501;52.282;10.560;2023-08-24T03:37:45;9.60;;;6.30;;
26946;SDS011;14501;52.282;10.560;2023-08-24T03:40:11;8.55;;;5.72;;
26946;SDS011;14501;52.282;10.560;2023-08-24T03:42:37;11.15;;;5.90;;
26946;SDS011;14501;52.282;10.560;2023-08-24T03:45:03;11.23;;;5.72;;
26946;SDS011;14501;52.282;10.560;2023-08-24T03:47:29;9.98;;;5.88;;
26946;SDS011;14501;52.282;10.560;2023-08-24T03:49:54;8.98;;;6.25;;
26946;SDS011;14501;52.282;10.560;2023-08-24T03:52:20;6.00;;;5.40;;
26946;SDS011;14501;52.282;10.560;2023-08-24T03:54:46;11.27;;;6.72;;
26946;SDS011;14501;52.282;10.560;2023-08-24T03:57:12;15.05;;;5.90;;
26946;SDS011;14501;52.282;10.560;2023-08-24T03:59:37;11.13;;;6.25;;
26946;SDS011;14501;52.282;10.560;2023-08-24T04:02:03;9.60;;;6.03;;
26946;SDS011;14501;52.282;10.560;2023-08-24T04:04:32;7.80;;;5.85;;
26946;SDS011;14501;52.282;10.560;2023-08-24T04:06:57;6.85;;;5.68;;
26946;SDS011;14501;52.282;10.560;2023-08-24T04:09:23;9.20;;;6.13;;
26946;SDS011;14501;52.282;10.560;2023-08-24T04:11:49;6.53;;;5.80;;
26946;SDS011;14501;52.282;10.560;2023-08-24T04:14:14;7.70;;;5.95;;
26946;SDS011;14501;52.282;10.560;2023-08-24T04:16:40;10.65;;;6.60;;
26946;SDS011;14501;52.282;10.560;2023-08-24T04:19:07;11.85;;;6.60;;
26946;SDS011;14501;52.282;10.560;2023-08-24T04:21:32;9.75;;;6.05;;
26946;SDS011;14501;52.282;10.560;2023-08-24T04:23:58;7.07;;;6.22;;
26946;SDS011;14501;52.282;10.560;2023-08-24T04:26:24;9.63;;;6.07;;
26946;SDS011;14501;52.282;10.560;2023-08-24T04:28:50;8.00;;;5.55;;
26946;SDS011;14501;52.282;10.560;2023-08-24T04:31:15;10.25;;;6.90;;
26946;SDS011;14501;52.282;10.560;2023-08-24T04:33:41;11.02;;;6.70;;
26946;SDS011;14501;52.282;10.560;2023-08-24T04:36:07;10.52;;;6.45;;
26946;SDS011;14501;52.282;10.560;2023-08-24T04:38:33;10.88;;;6.82;;
26946;SDS011;14501;52.282;10.560;2023-08-24T04:40:59;11.32;;;7.03;;
26946;SDS011;14501;52.282;10.560;2023-08-24T04:43:24;8.15;;;6.53;;
26946;SDS011;14501;52.282;10.560;2023-08-24T04:45:52;11.13;;;6.68;;
26946;SDS011;14501;52.282;10.560;2023-08-24T04:48:19;8.52;;;5.68;;
26946;SDS011;14501;52.282;10.560;2023-08-24T04:50:45;9.80;;;6.40;;
26946;SDS011;14501;52.282;10.560;2023-08-24T04:53:15;11.30;;;6.68;;
26946;SDS011;14501;52.282;10.560;2023-08-24T04:55:42;9.23;;;6.70;;
26946;SDS011;14501;52.282;10.560;2023-08-24T04:58:09;11.57;;;6.38;;
26946;SDS011;14501;52.282;10.560;2023-08-24T05:00:35;8.52;;;6.10;;
26946;SDS011;14501;52.282;10.560;2023-08-24T05:03:02;8.90;;;6.30;;
26946;SDS011;14501;52.282;10.560;2023-08-24T05:05:31;6.63;;;5.88;;
26946;SDS011;14501;52.282;10.560;2023-08-24T05:07:58;11.05;;;6.40;;
26946;SDS011;14501;52.282;10.560;2023-08-24T05:10:24;10.93;;;6.07;;
26946;SDS011;14501;52.282;10.560;2023-08-24T05:12:50;8.63;;;6.68;;
26946;SDS011;14501;52.282;10.560;2023-08-24T05:15:16;9.88;;;6.90;;
26946;SDS011;14501;52.282;10.560;2023-08-24T05:17:42;9.55;;;6.40;;
26946;SDS011;14501;52.282;10.560;2023-08-24T05:20:08;9.80;;;5.57;;
26946;SDS011;14501;52.282;10.560;2023-08-24T05:22:37;9.75;;;6.00;;
26946;SDS011;14501;52.282;10.560;2023-08-24T05:25:03;7.90;;;5.00;;
26946;SDS011;14501;52.282;10.560;2023-08-24T05:27:29;8.45;;;5.50;;
26946;SDS011;14501;52.282;10.560;2023-08-24T05:29:55;8.90;;;5.20;;
26946;SDS011;14501;52.282;10.560;2023-08-24T05:32:21;11.05;;;5.57;;
26946;SDS011;14501;52.282;10.560;2023-08-24T05:34:46;9.60;;;5.13;;
26946;SDS011;14501;52.282;10.560;2023-08-24T05:37:12;7.13;;;4.60;;
26946;SDS011;14501;52.282;10.560;2023-08-24T05:39:38;10.35;;;4.85;;
26946;SDS011;14501;52.282;10.560;2023-08-24T05:42:04;7.43;;;4.47;;
26946;SDS011;14501;52.282;10.560;2023-08-24T05:44:30;10.77;;;4.25;;
26946;SDS011;14501;52.282;10.560;2023-08-24T05:46:56;7.80;;;4.60;;
26946;SDS011;14501;52.282;10.560;2023-08-24T05:49:21;8.35;;;4.32;;
26946;SDS011;14501;52.282;10.560;2023-08-24T05:51:49;8.25;;;4.80;;
26946;SDS011;14501;52.282;10.560;2023-08-24T05:54:15;7.55;;;4.28;;
26946;SDS011;14501;52.282;10.560;2023-08-24T05:56:45;5.35;;;3.88;;
26946;SDS011;14501;52.282;10.560;2023-08-24T05:59:11;7.30;;;4.07;;
26946;SDS011;14501;52.282;10.560;2023-08-24T06:01:36;10.30;;;5.20;;
26946;SDS011;14501;52.282;10.560;2023-08-24T06:04:04;8.63;;;4.55;;
26946;SDS011;14501;52.282;10.560;2023-08-24T06:06:33;6.15;;;4.03;;
26946;SDS011;14501;52.282;10.560;2023-08-24T06:08:59;9.95;;;4.43;;
26946;SDS011;14501;52.282;10.560;2023-08-24T06:11:25;9.65;;;3.80;;
26946;SDS011;14501;52.282;10.560;2023-08-24T06:13:51;8.65;;;4.13;;
26946;SDS011;14501;52.282;10.560;2023-08-24T06:16:18;13.60;;;4.80;;
26946;SDS011;14501;52.282;10.560;2023-08-24T06:18:44;14.82;;;3.90;;
26946;SDS011;14501;52.282;10.560;2023-08-24T06:21:10;9.57;;;4.40;;
26946;SDS011;14501;52.282;10.560;2023-08-24T06:23:35;8.82;;;3.53;;
26946;SDS011;14501;52.282;10.560;2023-08-24T06:26:01;9.18;;;4.15;;
26946;SDS011;14501;52.282;10.560;2023-08-24T06:28:27;6.32;;;3.67;;
26946;SDS011;14501;52.282;10.560;2023-08-24T06:30:54;7.20;;;3.40;;
26946;SDS011;14501;52.282;10.560;2023-08-24T06:33:20;4.93;;;3.65;;
26946;SDS011;14501;52.282;10.560;2023-08-24T06:35:46;4.22;;;3.63;;
26946;SDS011;14501;52.282;10.560;2023-08-24T06:38:11;11.15;;;3.97;;
26946;SDS011;14501;52.282;10.560;2023-08-24T06:40:38;6.78;;;4.07;;
26946;SDS011;14501;52.282;10.560;2023-08-24T06:43:04;5.93;;;3.53;;
26946;SDS011;14501;52.282;10.560;2023-08-24T06:45:30;7.05;;;3.35;;
26946;SDS011;14501;52.282;10.560;2023-08-24T06:47:56;13.18;;;4.38;;
26946;SDS011;14501;52.282;10.560;2023-08-24T06:50:22;6.65;;;3.58;;
26946;SDS011;14501;52.282;10.560;2023-08-24T06:52:47;6.40;;;3.88;;
26946;SDS011;14501;52.282;10.560;2023-08-24T06:55:13;6.13;;;3.90;;
26946;SDS011;14501;52.282;10.560;2023-08-24T06:57:39;7.00;;;3.65;;
26946;SDS011;14501;52.282;10.560;2023-08-24T07:00:05;11.57;;;4.00;;
26946;SDS011;14501;52.282;10.560;2023-08-24T07:02:32;9.75;;;4.10;;
26946;SDS011;14501;52.282;10.560;2023-08-24T07:04:58;9.90;;;3.92;;
26946;SDS011;14501;52.282;10.560;2023-08-24T07:07:24;7.00;;;3.75;;
26946;SDS011;14501;52.282;10.560;2023-08-24T07:09:50;13.55;;;4.32;;
26946;SDS011;14501;52.282;10.560;2023-08-24T07:12:16;7.10;;;4.18;;
26946;SDS011;14501;52.282;10.560;2023-08-24T07:14:41;12.85;;;4.10;;
26946;SDS011;14501;52.282;10.560;2023-08-24T07:17:07;11.80;;;4.60;;
26946;SDS011;14501;52.282;10.560;2023-08-24T07:19:32;7.25;;;4.00;;
26946;SDS011;14501;52.282;10.560;2023-08-24T07:21:58;11.07;;;3.92;;
26946;SDS011;14501;52.282;10.560;2023-08-24T07:24:24;8.10;;;4.03;;
26946;SDS011;14501;52.282;10.560;2023-08-24T07:26:52;8.45;;;3.97;;
26946;SDS011;14501;52.282;10.560;2023-08-24T07:29:18;13.75;;;4.72;;
26946;SDS011;14501;52.282;10.560;2023-08-24T07:31:44;8.38;;;4.72;;
26946;SDS011;14501;52.282;10.560;2023-08-24T07:34:09;7.95;;;4.40;;
26946;SDS011;14501;52.282;10.560;2023-08-24T07:36:35;8.07;;;4.53;;
26946;SDS011;14501;52.282;10.560;2023-08-24T07:39:00;11.07;;;4.50;;
26946;SDS011;14501;52.282;10.560;2023-08-24T07:41:26;8.85;;;3.55;;
26946;SDS011;14501;52.282;10.560;2023-08-24T07:43:51;13.75;;;4.38;;
26946;SDS011;14501;52.282;10.560;2023-08-24T07:46:17;8.63;;;4.32;;
26946;SDS011;14501;52.282;10.560;2023-08-24T07:48:43;12.82;;;4.63;;
26946;SDS011;14501;52.282;10.560;2023-08-24T07:51:08;6.47;;;3.63;;
26946;SDS011;14501;52.282;10.560;2023-08-24T07:53:34;8.88;;;4.35;;
26946;SDS011;14501;52.282;10.560;2023-08-24T07:56:00;13.25;;;4.47;;
26946;SDS011;14501;52.282;10.560;2023-08-24T07:58:26;6.45;;;4.38;;
26946;SDS011;14501;52.282;10.560;2023-08-24T08:00:52;10.85;;;4.15;;
26946;SDS011;14501;52.282;10.560;2023-08-24T08:03:20;6.72;;;3.83;;
26946;SDS011;14501;52.282;10.560;2023-08-24T08:05:46;11.07;;;3.80;;
26946;SDS011;14501;52.282;10.560;2023-08-24T08:08:15;7.30;;;3.40;;
26946;SDS011;14501;52.282;10.560;2023-08-24T08:10:41;7.38;;;3.85;;
26946;SDS011;14501;52.282;10.560;2023-08-24T08:13:07;7.65;;;4.18;;
26946;SDS011;14501;52.282;10.560;2023-08-24T08:15:36;6.18;;;3.38;;
26946;SDS011;14501;52.282;10.560;2023-08-24T08:18:03;6.63;;;3.20;;
26946;SDS011;14501;52.282;10.560;2023-08-24T08:20:30;8.88;;;3.13;;
26946;SDS011;14501;52.282;10.560;2023-08-24T08:22:56;9.48;;;3.40;;
26946;SDS011;14501;52.282;10.560;2023-08-24T08:25:21;7.28;;;3.38;;
26946;SDS011;14501;52.282;10.560;2023-08-24T08:27:47;10.50;;;3.65;;
26946;SDS011;14501;52.282;10.560;2023-08-24T08:30:13;10.00;;;3.38;;
26946;SDS011;14501;52.282;10.560;2023-08-24T08:32:40;8.30;;;3.25;;
26946;SDS011;14501;52.282;10.560;2023-08-24T08:35:06;6.82;;;3.03;;
26946;SDS011;14501;52.282;10.560;2023-08-24T08:37:32;6.75;;;3.25;;
26946;SDS011;14501;52.282;10.560;2023-08-24T08:39:58;9.13;;;3.30;;
26946;SDS011;14501;52.282;10.560;2023-08-24T08:42:23;7.75;;;3.88;;
26946;SDS011;14501;52.282;10.560;2023-08-24T08:44:49;10.45;;;4.63;;
26946;SDS011;14501;52.282;10.560;2023-08-24T08:47:15;7.60;;;4.03;;
26946;SDS011;14501;52.282;10.560;2023-08-24T08:49:43;6.18;;;3.80;;
26946;SDS011;14501;52.282;10.560;2023-08-24T08:52:10;9.23;;;4.70;;
26946;SDS011;14501;52.282;10.560;2023-08-24T08:54:36;7.72;;;4.57;;
26946;SDS011;14501;52.282;10.560;2023-08-24T08:57:02;10.52;;;4.70;;
26946;SDS011;14501;52.282;10.560;2023-08-24T08:59:28;8.65;;;4.82;;
26946;SDS011;14501;52.282;10.560;2023-08-24T09:01:56;16.17;;;4.95;;
26946;SDS011;14501;52.282;10.560;2023-08-24T09:04:23;8.95;;;4.32;;
26946;SDS011;14501;52.282;10.560;2023-08-24T09:06:49;8.55;;;4.95;;
26946;SDS011;14501;52.282;10.560;2023-08-24T09:09:15;9.35;;;4.85;;
26946;SDS011;14501;52.282;10.560;2023-08-24T09:11:41;7.10;;;4.22;;
26946;SDS011;14501;52.282;10.560;2023-08-24T09:14:07;12.05;;;3.90;;
26946;SDS011;14501;52.282;10.560;2023-08-24T09:16:33;9.93;;;4.40;;
26946;SDS011;14501;52.282;10.560;2023-08-24T09:18:59;7.97;;;3.67;;
26946;SDS011;14501;52.282;10.560;2023-08-24T09:21:30;9.30;;;3.95;;
26946;SDS011;14501;52.282;10.560;2023-08-24T09:23:56;7.40;;;3.35;;
26946;SDS011;14501;52.282;10.560;2023-08-24T09:26:31;8.10;;;3.97;;
26946;SDS011;14501;52.282;10.560;2023-08-24T09:29:10;6.90;;;3.78;;
26946;SDS011;14501;52.282;10.560;2023-08-24T09:31:39;7.82;;;3.90;;
26946;SDS011;14501;52.282;10.560;2023-08-24T09:34:06;7.97;;;2.90;;
26946;SDS011;14501;52.282;10.560;2023-08-24T09:36:35;5.00;;;2.72;;
26946;SDS011;14501;52.282;10.560;2023-08-24T09:39:02;6.75;;;3.03;;
26946;SDS011;14501;52.282;10.560;2023-08-24T09:41:43;4.43;;;2.70;;
26946;SDS011;14501;52.282;10.560;2023-08-24T09:44:09;5.88;;;2.92;;
26946;SDS011;14501;52.282;10.560;2023-08-24T09:46:37;6.43;;;2.80;;
26946;SDS011;14501;52.282;10.560;2023-08-24T09:49:06;5.18;;;2.83;;
26946;SDS011;14501;52.282;10.560;2023-08-24T09:51:35;7.63;;;3.00;;
26946;SDS011;14501;52.282;10.560;2023-08-24T09:54:02;6.90;;;3.25;;
26946;SDS011;14501;52.282;10.560;2023-08-24T09:56:37;8.38;;;2.75;;
26946;SDS011;14501;52.282;10.560;2023-08-24T09:59:06;4.47;;;2.90;;
26946;SDS011;14501;52.282;10.560;2023-08-24T10:01:46;5.30;;;2.80;;
26946;SDS011;14501;52.282;10.560;2023-08-24T10:04:47;3.85;;;3.10;;
26946;SDS011;14501;52.282;10.560;2023-08-24T10:07:10;6.60;;;3.20;;
26946;SDS011;14501;52.282;10.560;2023-08-24T10:10:25;8.73;;;3.40;;
26946;SDS011;14501;52.282;10.560;2023-08-24T10:12:30;6.22;;;3.05;;
26946;SDS011;14501;52.282;10.560;2023-08-24T10:17:29;6.88;;;2.72;;
26946;SDS011;14501;52.282;10.560;2023-08-24T10:19:57;6.32;;;2.70;;
26946;SDS011;14501;52.282;10.560;2023-08-24T10:22:26;4.30;;;2.83;;
26946;SDS011;14501;52.282;10.560;2023-08-24T10:24:53;5.55;;;2.78;;
26946;SDS011;14501;52.282;10.560;2023-08-24T10:27:20;3.67;;;2.60;;
26946;SDS011;14501;52.282;10.560;2023-08-24T10:29:48;10.63;;;2.75;;
26946;SDS011;14501;52.282;10.560;2023-08-24T10:32:14;5.90;;;2.75;;
26946;SDS011;14501;52.282;10.560;2023-08-24T10:34:40;6.15;;;2.80;;
26946;SDS011;14501;52.282;10.560;2023-08-24T10:37:07;7.60;;;2.83;;
26946;SDS011;14501;52.282;10.560;2023-08-24T10:39:46;8.02;;;2.78;;
26946;SDS011;14501;52.282;10.560;2023-08-24T10:42:12;6.80;;;2.90;;
26946;SDS011;14501;52.282;10.560;2023-08-24T10:44:40;3.75;;;2.97;;
26946;SDS011;14501;52.282;10.560;2023-08-24T10:49:38;3.90;;;2.67;;
26946;SDS011;14501;52.282;10.560;2023-08-24T10:54:45;4.43;;;3.30;;
26946;SDS011;14501;52.282;10.560;2023-08-24T10:59:45;5.53;;;3.00;;
26946;SDS011;14501;52.282;10.560;2023-08-24T11:02:21;4.47;;;2.78;;
26946;SDS011;14501;52.282;10.560;2023-08-24T11:05:04;11.68;;;3.13;;
26946;SDS011;14501;52.282;10.560;2023-08-24T11:09:56;6.35;;;2.92;;
26946;SDS011;14501;52.282;10.560;2023-08-24T11:12:22;5.30;;;2.50;;
26946;SDS011;14501;52.282;10.560;2023-08-24T11:14:51;4.93;;;2.47;;
26946;SDS011;14501;52.282;10.560;2023-08-24T11:17:20;7.57;;;2.70;;
26946;SDS011;14501;52.282;10.560;2023-08-24T11:19:50;5.05;;;2.45;;
26946;SDS011;14501;52.282;10.560;2023-08-24T11:22:17;6.22;;;2.63;;
26946;SDS011;14501;52.282;10.560;2023-08-24T11:24:43;3.80;;;2.35;;
26946;SDS011;14501;52.282;10.560;2023-08-24T11:27:09;3.20;;;2.30;;
26946;SDS011;14501;52.282;10.560;2023-08-24T11:29:35;5.63;;;2.05;;
26946;SDS011;14501;52.282;10.560;2023-08-24T11:32:00;4.38;;;2.70;;
26946;SDS011;14501;52.282;10.560;2023-08-24T11:34:27;4.47;;;2.40;;
26946;SDS011;14501;52.282;10.560;2023-08-24T11:36:54;7.00;;;2.55;;
26946;SDS011;14501;52.282;10.560;2023-08-24T11:39:20;3.95;;;2.55;;
26946;SDS011;14501;52.282;10.560;2023-08-24T11:42:00;9.88;;;2.80;;
26946;SDS011;14501;52.282;10.560;2023-08-24T11:44:28;5.15;;;2.72;;
26946;SDS011;14501;52.282;10.560;2023-08-24T11:46:58;5.00;;;2.25;;
26946;SDS011;14501;52.282;10.560;2023-08-24T11:49:23;5.38;;;2.70;;
26946;SDS011;14501;52.282;10.560;2023-08-24T11:51:50;3.58;;;2.47;;
26946;SDS011;14501;52.282;10.560;2023-08-24T11:54:16;3.67;;;2.95;;
26946;SDS011;14501;52.282;10.560;2023-08-24T11:56:46;7.63;;;2.90;;
26946;SDS011;14501;52.282;10.560;2023-08-24T11:59:12;5.57;;;2.38;;
26946;SDS011;14501;52.282;10.560;2023-08-24T12:01:39;3.50;;;2.58;;
26946;SDS011;14501;52.282;10.560;2023-08-24T12:04:06;8.75;;;2.75;;
26946;SDS011;14501;52.282;10.560;2023-08-24T12:06:32;7.57;;;2.60;;
26946;SDS011;14501;52.282;10.560;2023-08-24T12:08:58;7.22;;;2.50;;
26946;SDS011;14501;52.282;10.560;2023-08-24T12:11:23;4.00;;;2.70;;
26946;SDS011;14501;52.282;10.560;2023-08-24T12:13:52;3.67;;;2.58;;
26946;SDS011;14501;52.282;10.560;2023-08-24T12:16:19;5.45;;;2.47;;
26946;SDS011;14501;52.282;10.560;2023-08-24T12:18:53;5.00;;;2.60;;
26946;SDS011;14501;52.282;10.560;2023-08-24T12:21:23;4.20;;;2.20;;
26946;SDS011;14501;52.282;10.560;2023-08-24T12:23:59;9.73;;;2.88;;
26946;SDS011;14501;52.282;10.560;2023-08-24T12:26:28;2.88;;;2.47;;
26946;SDS011;14501;52.282;10.560;2023-08-24T12:29:04;6.75;;;2.72;;
26946;SDS011;14501;52.282;10.560;2023-08-24T12:31:32;5.65;;;2.53;;
26946;SDS011;14501;52.282;10.560;2023-08-24T12:34:02;2.72;;;2.10;;
26946;SDS011;14501;52.282;10.560;2023-08-24T12:36:34;3.78;;;2.85;;
26946;SDS011;14501;52.282;10.560;2023-08-24T12:39:01;8.98;;;2.70;;
26946;SDS011;14501;52.282;10.560;2023-08-24T12:41:31;6.47;;;2.70;;
26946;SDS011;14501;52.282;10.560;2023-08-24T12:43:57;6.47;;;2.47;;
26946;SDS011;14501;52.282;10.560;2023-08-24T12:46:24;6.53;;;2.88;;
26946;SDS011;14501;52.282;10.560;2023-08-24T12:48:53;5.25;;;3.17;;
26946;SDS011;14501;52.282;10.560;2023-08-24T12:51:20;5.50;;;2.50;;
26946;SDS011;14501;52.282;10.560;2023-08-24T12:53:46;4.07;;;2.63;;
26946;SDS011;14501;52.282;10.560;2023-08-24T12:56:12;5.13;;;2.50;;
26946;SDS011;14501;52.282;10.560;2023-08-24T12:58:39;3.65;;;2.47;;
26946;SDS011;14501;52.282;10.560;2023-08-24T13:01:05;4.15;;;2.80;;
26946;SDS011;14501;52.282;10.560;2023-08-24T13:03:35;4.13;;;2.30;;
26946;SDS011;14501;52.282;10.560;2023-08-24T13:06:02;2.90;;;2.20;;
26946;SDS011;14501;52.282;10.560;2023-08-24T13:08:29;4.97;;;2.10;;
26946;SDS011;14501;52.282;10.560;2023-08-24T13:10:55;3.97;;;2.30;;
26946;SDS011;14501;52.282;10.560;2023-08-24T13:13:21;3.97;;;2.50;;
26946;SDS011;14501;52.282;10.560;2023-08-24T13:15:50;4.15;;;2.38;;
26946;SDS011;14501;52.282;10.560;2023-08-24T13:18:16;4.53;;;2.33;;
26946;SDS011;14501;52.282;10.560;2023-08-24T13:20:42;4.57;;;2.53;;
26946;SDS011;14501;52.282;10.560;2023-08-24T13:23:08;4.60;;;2.50;;
26946;SDS011;14501;52.282;10.560;2023-08-24T13:25:34;3.78;;;2.33;;
26946;SDS011;14501;52.282;10.560;2023-08-24T13:28:01;5.65;;;2.53;;
26946;SDS011;14501;52.282;10.560;2023-08-24T13:30:27;5.93;;;2.30;;
26946;SDS011;14501;52.282;10.560;2023-08-24T13:32:56;8.80;;;2.30;;
26946;SDS011;14501;52.282;10.560;2023-08-24T13:35:23;4.30;;;2.20;;
26946;SDS011;14501;52.282;10.560;2023-08-24T13:37:52;7.03;;;2.13;;
26946;SDS011;14501;52.282;10.560;2023-08-24T13:40:20;5.45;;;2.00;;
26946;SDS011;14501;52.282;10.560;2023-08-24T13:42:46;7.40;;;2.15;;
26946;SDS011;14501;52.282;10.560;2023-08-24T13:45:12;4.82;;;1.85;;
26946;SDS011;14501;52.282;10.560;2023-08-24T13:47:38;3.10;;;1.98;;
26946;SDS011;14501;52.282;10.560;2023-08-24T13:50:05;3.20;;;2.00;;
26946;SDS011;14501;52.282;10.560;2023-08-24T13:52:31;4.47;;;1.90;;
26946;SDS011;14501;52.282;10.560;2023-08-24T13:55:00;2.10;;;1.80;;
26946;SDS011;14501;52.282;10.560;2023-08-24T13:57:28;2.38;;;1.58;;
26946;SDS011;14501;52.282;10.560;2023-08-24T13:59:55;2.20;;;2.00;;
26946;SDS011;14501;52.282;10.560;2023-08-24T14:02:21;3.45;;;1.83;;
26946;SDS011;14501;52.282;10.560;2023-08-24T14:04:47;4.68;;;1.73;;
26946;SDS011;14501;52.282;10.560;2023-08-24T14:07:13;4.75;;;1.92;;
26946;SDS011;14501;52.282;10.560;2023-08-24T14:09:39;3.83;;;2.10;;
26946;SDS011;14501;52.282;10.560;2023-08-24T14:12:05;2.75;;;1.90;;
26946;SDS011;14501;52.282;10.560;2023-08-24T14:14:32;4.93;;;1.90;;
26946;SDS011;14501;52.282;10.560;2023-08-24T14:16:57;4.22;;;1.83;;
26946;SDS011;14501;52.282;10.560;2023-08-24T14:19:26;4.18;;;1.90;;
26946;SDS011;14501;52.282;10.560;2023-08-24T14:21:52;4.47;;;2.00;;
26946;SDS011;14501;52.282;10.560;2023-08-24T14:24:18;3.22;;;1.88;;
26946;SDS011;14501;52.282;10.560;2023-08-24T14:26:47;3.53;;;2.08;;
26946;SDS011;14501;52.282;10.560;2023-08-24T14:29:13;3.40;;;1.90;;
26946;SDS011;14501;52.282;10.560;2023-08-24T14:31:40;6.20;;;2.05;;
26946;SDS011;14501;52.282;10.560;2023-08-24T14:34:06;6.32;;;2.30;;
26946;SDS011;14501;52.282;10.560;2023-08-24T14:36:32;3.55;;;1.80;;
26946;SDS011;14501;52.282;10.560;2023-08-24T14:38:58;8.88;;;1.88;;
26946;SDS011;14501;52.282;10.560;2023-08-24T14:41:24;3.85;;;2.28;;
26946;SDS011;14501;52.282;10.560;2023-08-24T14:43:50;4.70;;;2.00;;
26946;SDS011;14501;52.282;10.560;2023-08-24T14:46:16;4.93;;;2.08;;
26946;SDS011;14501;52.282;10.560;2023-08-24T14:48:42;4.07;;;2.22;;